Terminal Aerodrome Forecast
Issued by NWS

Home | Current Version | Previous Version | Text Only | Print | Product List | Glossary Off
Versions: 1 2 3 4 5 6 7 8 9 10 11 12 13 14 15

000
FTUS43 KICT 201120
TAFSLN
TAF
KSLN 201120Z 2012/2112 18013KT P6SM BKN250 WS020/19045KT
     FM201400 17017KT P6SM BKN200
     FM201800 18024G32KT P6SM BKN150
     FM210800 18023G31KT P6SM BKN025=

USA.gov is the U.S. government's official web portal to all federal, state and local government web resources and services.